Terminal Aerodrome Forecast
Issued by NWS

Home | Current Version | Previous Version | Text Only | Print | Product List | Glossary On
Versions: 1 2 3 4 5 6 7 8 9 10 11 12 13
000
FTUS44 KLIX 060532
TAFMCB
TAF
KMCB 060532Z 0606/0706 00000KT P6SM SKC
     FM061100 00000KT P6SM BKN150
     FM061600 20006KT P6SM SCT150
     FM070400 00000KT P6SM SCT250=

USA.gov is the U.S. government's official web portal to all federal, state and local government web resources and services.